Time;durP1;ratioP1;P1;durP2;ratioP2;P2;SDS_P1;SDS_P2;PMS_P1;PMS_P2;Temp;Humidity;BMP_temperature;BMP_pressure;BME280_temperature;BME280_humidity;BME280_pressure;Samples;Min_cycle;Max_cycle;Signal;HPM_P1;HPM_P2
2021/06/05 00:00:27;;;;;;;4.90;3.10;;;;;;;23.45;56.46;101868.59;5031848;28;20109;-58
2021/06/05 00:02:56;;;;;;;4.10;2.70;;;;;;;23.44;56.12;101869.56;5031990;28;20021;-57
2021/06/05 00:05:23;;;;;;;4.93;3.47;;;;;;;23.41;56.21;101867.16;5031020;28;20343;-57
2021/06/05 00:07:49;;;;;;;5.25;3.17;;;;;;;23.43;56.41;101856.38;5031700;28;20528;-57
2021/06/05 00:10:20;;;;;;;4.00;2.97;;;;;;;23.43;56.27;101859.91;5031749;28;20116;-59
2021/06/05 00:12:45;;;;;;;4.38;2.90;;;;;;;23.42;56.33;101866.19;5031403;28;20033;-58
2021/06/05 00:15:17;;;;;;;4.47;3.05;;;;;;;23.42;56.41;101860.03;5032342;28;20044;-58
2021/06/05 00:17:43;;;;;;;4.35;2.95;;;;;;;23.41;56.21;101856.53;5031677;28;20534;-57
2021/06/05 00:20:11;;;;;;;4.80;3.00;;;;;;;23.42;56.14;101854.72;5031078;28;20030;-58
2021/06/05 00:22:36;;;;;;;4.50;3.00;;;;;;;23.42;56.42;101860.03;5032008;28;20155;-58
2021/06/05 00:25:04;;;;;;;5.75;3.13;;;;;;;23.40;56.04;101857.50;5031681;28;20072;-58
2021/06/05 00:27:30;;;;;;;5.00;3.15;;;;;;;23.40;56.36;101852.19;5031026;28;20025;-58
2021/06/05 00:29:55;;;;;;;5.10;3.30;;;;;;;23.37;56.31;101852.47;5031800;28;20431;-57
2021/06/05 00:32:20;;;;;;;4.70;3.00;;;;;;;23.39;56.29;101847.84;5031472;28;20584;-57
2021/06/05 00:34:48;;;;;;;4.43;2.93;;;;;;;23.38;56.35;101854.13;5030881;28;20029;-57
2021/06/05 00:37:14;;;;;;;4.65;2.92;;;;;;;23.38;56.10;101855.97;5031474;28;20789;-58
2021/06/05 00:39:39;;;;;;;4.32;3.00;;;;;;;23.37;56.19;101860.44;5032047;28;20029;-57
2021/06/05 00:42:05;;;;;;;5.63;2.95;;;;;;;23.36;56.23;101864.91;5030596;28;20049;-57
2021/06/05 00:44:31;;;;;;;5.43;3.08;;;;;;;23.35;56.13;101865.03;5031459;28;20018;-58
2021/06/05 00:46:58;;;;;;;5.43;2.88;;;;;;;23.35;56.25;101855.25;5030932;28;20030;-57
2021/06/05 00:49:23;;;;;;;4.60;3.08;;;;;;;23.36;55.92;101858.75;5031367;28;20026;-57
2021/06/05 00:51:51;;;;;;;4.50;3.03;;;;;;;23.36;56.13;101862.25;5031753;28;20381;-57
2021/06/05 00:54:20;;;;;;;3.92;2.83;;;;;;;23.34;56.05;101861.53;5030584;28;20025;-57
2021/06/05 00:56:51;;;;;;;4.60;3.10;;;;;;;23.35;55.83;101863.25;5031674;28;20030;-57
2021/06/05 00:59:16;;;;;;;5.13;3.13;;;;;;;23.34;55.99;101866.03;5031228;28;20445;-57
2021/06/05 01:01:42;;;;;;;5.32;3.58;;;;;;;23.33;56.07;101859.84;5030862;28;20026;-57
2021/06/05 01:04:08;;;;;;;5.23;3.20;;;;;;;23.35;56.18;101859.72;5031185;28;20034;-57
2021/06/05 01:06:51;;;;;;;5.38;3.15;;;;;;;23.33;56.32;101854.53;5031390;28;20527;-57
2021/06/05 01:09:32;;;;;;;4.30;3.05;;;;;;;23.32;56.04;101844.88;5030187;28;20049;-58
2021/06/05 01:12:10;;;;;;;4.47;3.20;;;;;;;23.33;55.89;101843.06;5031467;28;20048;-57
2021/06/05 01:14:56;;;;;;;4.55;3.20;;;;;;;23.32;56.18;101841.38;5031517;28;20022;-58
2021/06/05 01:17:30;;;;;;;4.80;3.20;;;;;;;23.30;55.95;101844.16;5030440;28;20053;-58
2021/06/05 01:20:11;;;;;;;4.85;3.13;;;;;;;23.31;55.97;101845.84;5031298;28;20025;-59
2021/06/05 01:23:16;;;;;;;5.68;3.30;;;;;;;23.31;55.92;101850.34;5030949;28;20036;-59
2021/06/05 01:26:06;;;;;;;4.85;3.17;;;;;;;23.31;56.01;101845.03;5031569;28;20156;-58
2021/06/05 01:28:39;;;;;;;4.45;3.20;;;;;;;23.31;55.84;101845.84;5031205;28;20029;-58
2021/06/05 01:31:09;;;;;;;4.78;3.35;;;;;;;23.30;56.08;101844.16;5033600;28;20053;-58
2021/06/05 01:33:47;;;;;;;4.22;2.92;;;;;;;23.30;55.89;101851.31;5035011;28;20021;-58
2021/06/05 01:36:14;;;;;;;4.93;3.15;;;;;;;23.28;55.86;101834.66;5033651;28;20017;-58
2021/06/05 01:38:45;;;;;;;4.45;3.28;;;;;;;23.28;55.99;101846.13;5034834;28;20100;-57
2021/06/05 01:41:13;;;;;;;4.78;3.30;;;;;;;23.25;56.06;101838.41;5034406;28;20025;-58
2021/06/05 01:43:43;;;;;;;5.03;3.28;;;;;;;23.28;56.11;101842.63;5033965;28;20021;-58
2021/06/05 01:46:09;;;;;;;4.90;3.25;;;;;;;23.27;56.06;101841.75;5034473;28;20117;-58
2021/06/05 01:48:35;;;;;;;5.45;3.28;;;;;;;23.27;56.06;101839.09;5034420;28;20025;-58
2021/06/05 01:51:08;;;;;;;4.68;3.55;;;;;;;23.26;56.08;101839.28;5033863;28;20025;-59
2021/06/05 01:53:38;;;;;;;4.82;3.20;;;;;;;23.27;56.01;101846.25;5034369;28;20118;-58
2021/06/05 01:56:23;;;;;;;5.22;3.60;;;;;;;23.26;55.82;101842.75;5034325;28;20033;-58
2021/06/05 01:58:49;;;;;;;4.53;3.42;;;;;;;23.26;56.14;101837.44;5033722;28;20029;-59
2021/06/05 02:01:14;;;;;;;5.68;3.33;;;;;;;23.26;55.94;101849.91;5034023;28;20107;-58
2021/06/05 02:03:41;;;;;;;5.13;3.63;;;;;;;23.24;56.03;101844.72;5034389;28;20021;-58
2021/06/05 02:06:07;;;;;;;5.72;3.50;;;;;;;23.18;56.10;101838.13;5033007;28;20036;-58
2021/06/05 02:08:33;;;;;;;5.50;4.10;;;;;;;23.26;56.13;101849.91;5033839;28;20041;-58
2021/06/05 02:11:08;;;;;;;4.78;3.55;;;;;;;23.24;55.71;101850.03;5034287;28;20056;-58
2021/06/05 02:13:43;;;;;;;6.07;4.05;;;;;;;23.23;55.87;101859.00;5033576;28;20026;-57
2021/06/05 02:16:14;;;;;;;5.10;3.53;;;;;;;23.24;56.03;101858.03;5033983;28;20420;-58
2021/06/05 02:18:59;;;;;;;5.30;3.70;;;;;;;23.24;56.00;101850.03;5033232;28;20048;-57
2021/06/05 02:21:30;;;;;;;5.50;4.05;;;;;;;23.24;55.90;101854.50;5033895;28;20021;-57
2021/06/05 02:24:13;;;;;;;5.88;4.00;;;;;;;23.23;56.07;101850.19;5034076;28;20049;-58
2021/06/05 02:26:41;;;;;;;5.35;3.67;;;;;;;23.22;55.98;101848.47;5033250;28;20401;-58
2021/06/05 02:29:10;;;;;;;6.38;4.05;;;;;;;23.23;56.04;101844.84;5033486;28;20064;-57
2021/06/05 02:31:38;;;;;;;6.03;4.07;;;;;;;23.23;56.00;101853.66;5033679;28;20018;-57
2021/06/05 02:34:06;;;;;;;5.50;4.13;;;;;;;23.19;55.92;101841.59;5032733;28;20025;-58
2021/06/05 02:36:32;;;;;;;6.57;4.25;;;;;;;23.21;56.34;101842.34;5033737;28;20028;-58
2021/06/05 02:38:57;;;;;;;7.05;4.43;;;;;;;23.21;56.24;101839.66;5033445;28;20018;-58
2021/06/05 02:41:24;;;;;;;7.32;4.25;;;;;;;23.21;56.15;101841.47;5031242;28;20029;-59
2021/06/05 02:43:56;;;;;;;6.93;4.40;;;;;;;23.22;56.15;101844.00;5033526;28;20025;-59
2021/06/05 02:46:25;;;;;;;5.47;4.00;;;;;;;23.22;55.99;101837.84;5033305;28;20385;-59
2021/06/05 02:48:56;;;;;;;8.13;4.32;;;;;;;23.21;56.11;101842.34;5033298;28;20410;-58
2021/06/05 02:51:28;;;;;;;6.57;4.32;;;;;;;23.21;56.12;101836.16;5033063;28;20036;-57
2021/06/05 02:54:13;;;;;;;5.85;4.30;;;;;;;22.91;56.20;101785.50;5032423;28;20125;-58
2021/06/05 02:56:41;;;;;;;6.13;4.68;;;;;;;23.20;55.90;101837.97;5045824;28;20511;-57
2021/06/05 02:59:06;;;;;;;5.72;4.47;;;;;;;23.18;56.11;101829.31;5033120;28;20428;-58
2021/06/05 03:01:33;;;;;;;5.45;4.30;;;;;;;23.17;56.21;101836.41;5032633;28;20026;-58
2021/06/05 03:04:02;;;;;;;5.95;4.40;;;;;;;23.20;56.00;101839.81;5033055;28;20121;-57
2021/06/05 03:06:29;;;;;;;6.35;4.85;;;;;;;23.19;55.87;101828.31;5033028;28;20025;-59
2021/06/05 03:08:54;;;;;;;6.15;4.40;;;;;;;23.20;56.04;101835.31;5032210;28;20046;-58
2021/06/05 03:11:22;;;;;;;5.57;4.30;;;;;;;23.20;56.15;101831.84;5032802;28;20036;-58
2021/06/05 03:13:48;;;;;;;5.97;4.93;;;;;;;23.20;56.25;101829.16;5033083;28;20492;-58
2021/06/05 03:16:15;;;;;;;5.63;4.32;;;;;;;23.16;56.05;101823.25;5031986;28;20149;-58
2021/06/05 03:18:40;;;;;;;6.15;4.80;;;;;;;23.20;56.00;101831.84;5032804;28;20051;-58
2021/06/05 03:21:08;;;;;;;6.50;4.97;;;;;;;23.17;55.92;101828.44;5032357;28;20026;-58
2021/06/05 03:23:34;;;;;;;6.72;5.07;;;;;;;23.20;55.93;101829.16;5032239;28;20021;-58
2021/06/05 03:26:00;;;;;;;6.28;5.18;;;;;;;23.18;56.01;101826.66;5032618;28;20550;-57
2021/06/05 03:28:28;;;;;;;6.43;4.60;;;;;;;23.16;56.11;101824.13;5032349;28;20017;-58
2021/06/05 03:30:54;;;;;;;7.95;5.15;;;;;;;23.17;56.00;101820.47;5031670;28;20043;-58
2021/06/05 03:33:21;;;;;;;6.18;4.70;;;;;;;23.15;56.00;101824.25;5032419;28;20030;-58
2021/06/05 03:35:48;;;;;;;5.93;4.80;;;;;;;23.17;55.87;101833.75;5031783;28;20473;-58
2021/06/05 03:38:14;;;;;;;5.88;4.80;;;;;;;23.17;56.24;101828.44;5032342;28;20083;-58
2021/06/05 03:40:39;;;;;;;6.93;5.22;;;;;;;23.17;55.95;101830.25;5032606;28;20025;-57
2021/06/05 03:43:06;;;;;;;6.32;4.80;;;;;;;23.17;55.99;101825.78;5031545;28;20083;-57
2021/06/05 03:45:31;;;;;;;6.53;5.03;;;;;;;23.17;55.85;101828.44;5032381;28;20112;-57
2021/06/05 03:47:59;;;;;;;6.20;4.68;;;;;;;23.17;56.24;101833.75;5032259;28;20071;-57
2021/06/05 03:50:29;;;;;;;6.72;4.93;;;;;;;23.16;56.07;101825.91;5031278;28;20036;-57
2021/06/05 03:52:55;;;;;;;6.25;5.10;;;;;;;23.15;56.22;101833.06;5032288;28;20025;-58
2021/06/05 03:55:20;;;;;;;6.63;5.15;;;;;;;23.15;56.16;101825.09;5032200;28;20609;-58
2021/06/05 03:57:46;;;;;;;6.28;4.85;;;;;;;23.13;56.04;101820.88;5031459;28;20119;-58
2021/06/05 04:00:15;;;;;;;6.60;5.32;;;;;;;23.15;55.97;101821.59;5032178;28;20033;-57
2021/06/05 04:02:41;;;;;;;5.70;4.90;;;;;;;23.15;55.99;101834.88;5032243;28;20028;-59
2021/06/05 04:05:08;;;;;;;6.07;4.97;;;;;;;23.15;56.02;101834.88;5031331;28;20113;-58
2021/06/05 04:07:33;;;;;;;7.25;5.22;;;;;;;23.13;55.94;101835.03;5031907;28;20026;-58
2021/06/05 04:09:58;;;;;;;7.75;5.20;;;;;;;23.14;56.02;101833.19;5032167;28;20130;-58
2021/06/05 04:12:26;;;;;;;7.53;5.47;;;;;;;23.14;56.03;101835.84;5031049;28;20114;-58
2021/06/05 04:14:52;;;;;;;7.43;5.43;;;;;;;23.14;56.16;101835.84;5032001;28;20546;-58
2021/06/05 04:17:18;;;;;;;5.88;5.28;;;;;;;23.12;56.11;101838.66;5031614;28;20053;-58
2021/06/05 04:19:43;;;;;;;6.63;5.03;;;;;;;23.13;56.11;101840.34;5031337;28;20021;-58
2021/06/05 04:22:09;;;;;;;6.60;5.23;;;;;;;23.13;56.08;101840.34;5031490;28;20021;-58
2021/06/05 04:24:37;;;;;;;7.25;5.45;;;;;;;23.12;56.09;101833.31;5031991;28;20271;-58
2021/06/05 04:27:03;;;;;;;6.68;5.47;;;;;;;23.12;56.00;101835.97;5030838;28;20079;-58
2021/06/05 04:29:29;;;;;;;7.03;5.40;;;;;;;23.12;55.90;101830.66;5031570;28;20029;-58
2021/06/05 04:31:54;;;;;;;7.03;5.38;;;;;;;23.11;56.08;101831.63;5031346;28;20079;-58
2021/06/05 04:34:20;;;;;;;6.78;5.43;;;;;;;23.12;56.00;101835.97;5031402;28;20029;-58
2021/06/05 04:36:46;;;;;;;6.32;5.50;;;;;;;23.10;55.98;101829.97;5031914;28;20021;-58
2021/06/05 04:39:11;;;;;;;6.43;5.20;;;;;;;23.11;56.00;101828.97;5030717;28;20040;-58
2021/06/05 04:41:36;;;;;;;7.05;5.80;;;;;;;23.12;56.03;101830.66;5031908;28;20030;-58
2021/06/05 04:44:02;;;;;;;7.25;5.60;;;;;;;23.11;56.10;101839.59;5031450;28;20492;-57
2021/06/05 04:46:27;;;;;;;7.25;5.55;;;;;;;23.10;56.11;101826.47;5030912;28;20056;-58
2021/06/05 04:48:53;;;;;;;6.78;5.30;;;;;;;23.11;55.96;101836.13;5031864;28;20032;-58
2021/06/05 04:51:22;;;;;;;6.70;5.45;;;;;;;23.10;55.90;101835.28;5031403;28;20052;-58
2021/06/05 04:53:54;;;;;;;7.10;5.30;;;;;;;23.11;55.99;101842.28;5030759;28;20418;-58
2021/06/05 04:56:30;;;;;;;6.40;5.32;;;;;;;23.09;55.96;101840.75;5031140;28;20040;-58
2021/06/05 04:58:56;;;;;;;7.47;5.78;;;;;;;23.09;56.06;101841.56;5031383;28;20029;-57
2021/06/05 05:01:22;;;;;;;7.05;5.70;;;;;;;23.09;55.92;101852.19;5030388;28;20025;-58
2021/06/05 05:03:47;;;;;;;6.97;5.22;;;;;;;23.10;55.85;101845.91;5031732;28;20025;-58
2021/06/05 05:06:13;;;;;;;7.22;5.45;;;;;;;23.08;56.41;101839.03;5034901;28;20026;-57
2021/06/05 05:08:38;;;;;;;7.00;6.03;;;;;;;23.10;56.05;101845.09;5034329;28;20047;-57
2021/06/05 05:11:04;;;;;;;7.50;6.13;;;;;;;23.08;56.28;101850.53;5034961;28;20025;-57
2021/06/05 05:13:32;;;;;;;8.63;6.22;;;;;;;23.10;56.18;101851.25;5035034;28;20025;-58
2021/06/05 05:15:59;;;;;;;7.00;5.82;;;;;;;23.10;56.13;101842.44;5034150;28;20039;-58
2021/06/05 05:18:27;;;;;;;7.28;6.07;;;;;;;23.08;55.99;101852.34;5034925;28;20026;-58
2021/06/05 05:20:53;;;;;;;7.78;6.15;;;;;;;23.09;56.14;101856.69;5035330;28;20022;-58
2021/06/05 05:23:20;;;;;;;8.32;6.40;;;;;;;23.09;56.29;101865.50;5034207;28;20088;-58
2021/06/05 05:25:46;;;;;;;7.78;6.07;;;;;;;23.07;56.26;101856.78;5034903;28;20026;-56
2021/06/05 05:28:14;;;;;;;7.72;6.30;;;;;;;23.08;56.46;101863.84;5034010;28;20037;-58
2021/06/05 05:30:45;;;;;;;7.57;5.95;;;;;;;23.08;56.21;101868.28;5034944;28;20129;-58
2021/06/05 05:33:11;;;;;;;8.38;6.15;;;;;;;23.07;56.25;101862.09;5034884;28;20022;-57
2021/06/05 05:35:37;;;;;;;7.28;6.18;;;;;;;23.07;56.37;101862.09;5034266;28;20066;-57
2021/06/05 05:38:05;;;;;;;8.45;6.70;;;;;;;23.08;55.99;101857.66;5034677;28;20222;-59
2021/06/05 05:40:31;;;;;;;8.50;6.35;;;;;;;23.08;56.27;101862.97;5035139;28;20428;-58
2021/06/05 05:42:57;;;;;;;9.85;6.82;;;;;;;23.07;55.94;101862.09;5034301;28;20396;-58
2021/06/05 05:45:25;;;;;;;9.77;6.93;;;;;;;23.07;56.18;101861.28;5034640;28;20140;-59
2021/06/05 05:47:59;;;;;;;8.93;6.72;;;;;;;23.06;55.95;101865.72;5035024;28;20022;-59
2021/06/05 05:50:29;;;;;;;8.13;6.93;;;;;;;23.05;56.02;101877.34;5033907;28;20176;-59
2021/06/05 05:52:55;;;;;;;9.07;7.57;;;;;;;23.07;56.16;101877.22;5034996;28;20510;-59
2021/06/05 05:55:21;;;;;;;10.38;8.00;;;;;;;23.05;56.33;101885.34;5034333;28;20033;-57
2021/06/05 05:57:49;;;;;;;10.55;8.30;;;;;;;23.02;56.44;101888.25;5032929;28;20493;-57
2021/06/05 06:00:34;;;;;;;12.07;9.00;;;;;;;23.00;56.75;101884.88;5033717;28;20028;-58
2021/06/05 06:03:00;;;;;;;12.45;9.50;;;;;;;22.97;56.73;101886.00;5034065;28;20027;-57
2021/06/05 06:05:28;;;;;;;10.90;8.80;;;;;;;22.93;56.88;101881.06;5033175;28;20096;-58
2021/06/05 06:07:54;;;;;;;12.65;10.20;;;;;;;22.94;56.84;101896.88;5033876;28;20049;-58
2021/06/05 06:10:21;;;;;;;10.60;8.80;;;;;;;22.93;57.07;101899.66;5033827;28;20133;-58
2021/06/05 06:12:47;;;;;;;10.75;8.82;;;;;;;22.92;56.68;101901.50;5033964;28;20026;-57
2021/06/05 06:15:16;;;;;;;11.70;9.43;;;;;;;22.93;56.56;101902.31;5033524;28;20045;-57
2021/06/05 06:17:42;;;;;;;11.63;9.07;;;;;;;22.93;56.56;101903.16;5033320;28;20021;-58
2021/06/05 06:20:30;;;;;;;10.93;8.75;;;;;;;22.94;56.76;101902.19;5033680;28;20033;-56
2021/06/05 06:22:56;;;;;;;11.95;9.18;;;;;;;22.96;56.65;101913.53;5034102;28;20039;-58
2021/06/05 06:25:24;;;;;;;10.38;8.38;;;;;;;22.99;56.91;101915.09;5032838;28;20030;-59
2021/06/05 06:27:51;;;;;;;12.48;8.60;;;;;;;22.93;56.76;101910.31;5033798;28;20026;-58
2021/06/05 06:30:45;;;;;;;11.88;8.18;;;;;;;23.01;56.79;101921.94;5033429;28;20029;-59
2021/06/05 06:33:12;;;;;;;;;;;;;;;23.03;56.67;101926.31;5028382;28;20144;-59
2021/06/05 06:35:38;;;;;;;12.00;8.73;;;;;;;22.96;57.21;101918.00;5033799;28;19913;-58
2021/06/05 06:38:05;;;;;;;11.40;9.52;;;;;;;22.98;56.74;101922.22;5033486;28;20025;-59
2021/06/05 06:40:33;;;;;;;11.93;8.30;;;;;;;23.04;57.01;101931.50;5033072;28;20031;-61
2021/06/05 06:42:59;;;;;;;12.38;8.80;;;;;;;23.04;56.88;101936.81;5033724;28;20053;-58
2021/06/05 06:45:26;;;;;;;11.65;8.32;;;;;;;23.02;56.88;101941.41;5033068;28;20400;-55
2021/06/05 06:47:52;;;;;;;15.55;11.63;;;;;;;23.04;57.06;101942.13;5032925;28;20029;-58
2021/06/05 06:50:20;;;;;;;19.95;14.02;;;;;;;22.99;56.70;101937.19;5033194;28;20037;-59
2021/06/05 06:52:46;;;;;;;24.15;16.05;;;;;;;23.01;57.00;101950.34;5032519;28;20033;-59
2021/06/05 06:55:12;;;;;;;26.42;19.02;;;;;;;22.99;57.05;101949.66;5033170;28;20022;-58
2021/06/05 06:57:38;;;;;;;28.40;19.73;;;;;;;22.98;57.13;101951.44;5033314;28;20025;-59
2021/06/05 07:00:10;;;;;;;29.30;19.02;;;;;;;22.98;57.20;101948.78;5032002;28;20072;-57
2021/06/05 07:02:35;;;;;;;31.00;19.50;;;;;;;22.97;56.89;101956.91;5033087;28;20032;-58
2021/06/05 07:05:00;;;;;;;26.27;19.47;;;;;;;22.94;57.15;101951.84;5033247;28;20108;-58
2021/06/05 07:07:29;;;;;;;27.20;19.25;;;;;;;22.94;57.00;101954.50;5032360;28;20298;-59
2021/06/05 07:09:55;;;;;;;28.23;19.65;;;;;;;22.94;57.22;101966.00;5035300;28;20124;-59
2021/06/05 07:12:21;;;;;;;27.20;19.15;;;;;;;22.94;57.29;101962.47;5033440;28;20077;-58
2021/06/05 07:14:46;;;;;;;27.20;20.00;;;;;;;22.93;57.23;101966.13;5032389;28;20537;-58
2021/06/05 07:17:11;;;;;;;26.55;18.35;;;;;;;22.92;57.15;101961.75;5033450;28;20091;-58
2021/06/05 07:19:39;;;;;;;28.38;20.00;;;;;;;22.92;57.10;101967.09;5033740;28;20075;-58
2021/06/05 07:22:05;;;;;;;27.63;19.35;;;;;;;22.92;57.30;101970.59;5031899;28;20548;-59
2021/06/05 07:24:30;;;;;;;27.63;19.15;;;;;;;22.91;57.13;101968.91;5033137;28;20104;-61
2021/06/05 07:26:56;;;;;;;25.63;18.40;;;;;;;22.88;57.21;101969.16;5032016;28;20045;-58
2021/06/05 07:29:22;;;;;;;25.80;18.60;;;;;;;22.90;57.23;101977.00;5031531;28;20338;-57
2021/06/05 07:31:52;;;;;;;23.92;17.63;;;;;;;22.90;57.33;101979.66;5032317;28;20415;-59
2021/06/05 07:34:25;;;;;;;27.50;18.60;;;;;;;22.89;57.17;101984.16;5032233;28;20029;-58
2021/06/05 07:36:54;;;;;;;26.42;18.05;;;;;;;22.88;57.48;101979.78;5031785;28;20029;-58
2021/06/05 07:39:26;;;;;;;25.30;17.90;;;;;;;22.89;57.51;101977.97;5032147;28;20078;-58
2021/06/05 07:41:52;;;;;;;23.40;16.50;;;;;;;22.88;57.26;101978.97;5031805;28;20021;-59
2021/06/05 07:44:19;;;;;;;22.60;16.40;;;;;;;22.87;57.27;101974.59;5032279;28;20029;-59
2021/06/05 07:47:00;;;;;;;20.85;15.98;;;;;;;22.87;57.81;101982.59;5032438;28;20036;-59
2021/06/05 07:49:29;;;;;;;22.70;15.20;;;;;;;22.82;58.09;101981.13;5002015;28;20049;-59
2021/06/05 07:51:55;;;;;;;22.15;15.40;;;;;;;22.86;58.24;101978.22;5028226;28;20095;-58
2021/06/05 07:54:20;;;;;;;21.55;15.13;;;;;;;22.82;58.05;101978.47;5032217;28;20018;-58
2021/06/05 07:56:49;;;;;;;19.90;14.65;;;;;;;22.79;58.25;101975.25;5031706;28;20028;-58
2021/06/05 07:59:19;;;;;;;19.13;14.45;;;;;;;22.77;58.40;101977.19;5031777;28;20471;-58
2021/06/05 08:01:44;;;;;;;18.63;13.77;;;;;;;22.76;58.35;101972.84;5032278;28;20049;-57
2021/06/05 08:04:10;;;;;;;21.52;14.18;;;;;;;22.75;58.67;101973.84;5007244;28;20045;-59
2021/06/05 08:06:36;;;;;;;17.85;12.80;;;;;;;22.77;58.53;101975.38;5032667;28;20395;-57
2021/06/05 08:09:01;;;;;;;17.23;12.43;;;;;;;22.79;58.60;101972.59;5032012;28;20042;-58
2021/06/05 08:11:27;;;;;;;18.38;12.63;;;;;;;22.78;58.88;101973.53;5031184;28;20432;-59
2021/06/05 08:13:52;;;;;;;18.75;12.75;;;;;;;22.79;58.60;101977.91;5033757;28;20571;-59
2021/06/05 08:16:17;;;;;;;17.13;12.52;;;;;;;22.74;58.83;101972.97;5032474;28;20026;-60
2021/06/05 08:18:43;;;;;;;17.63;13.00;;;;;;;22.76;58.89;101981.66;5032090;28;20049;-58
2021/06/05 08:21:15;;;;;;;18.23;12.77;;;;;;;22.76;59.15;101981.66;5031717;28;20026;-59
2021/06/05 08:23:41;;;;;;;18.05;12.98;;;;;;;22.72;59.13;101974.91;5037169;28;20028;-59
2021/06/05 08:26:08;;;;;;;18.10;12.07;;;;;;;22.73;58.98;101976.63;5033298;28;20017;-60
2021/06/05 08:28:34;;;;;;;18.20;13.23;;;;;;;22.68;58.83;101970.81;5033515;28;20025;-60
2021/06/05 08:31:06;;;;;;;15.90;11.80;;;;;;;22.72;58.70;101987.38;5032532;28;20133;-58
2021/06/05 08:33:32;;;;;;;19.63;13.43;;;;;;;22.69;58.96;101982.31;5033006;28;20028;-60
2021/06/05 08:35:58;;;;;;;19.40;13.48;;;;;;;22.67;58.91;101990.41;5032999;28;20026;-58
2021/06/05 08:38:27;;;;;;;17.55;13.63;;;;;;;22.67;59.04;101992.19;5032478;28;20021;-59
2021/06/05 08:41:04;;;;;;;21.02;13.70;;;;;;;22.64;59.17;101993.31;5037027;28;20448;-60
2021/06/05 08:43:43;;;;;;;17.20;12.75;;;;;;;22.62;59.53;101993.44;5036837;28;20029;-59
2021/06/05 08:46:13;;;;;;;21.33;14.05;;;;;;;22.61;59.39;101990.91;5035031;28;20037;-59
2021/06/05 08:48:38;;;;;;;19.83;14.60;;;;;;;22.59;59.25;101996.34;5035987;28;20029;-58
2021/06/05 08:51:20;;;;;;;20.98;15.07;;;;;;;22.58;59.13;101997.31;5035163;28;20025;-59
2021/06/05 08:53:46;;;;;;;18.38;13.88;;;;;;;22.57;59.10;101993.00;5035471;28;20025;-59
2021/06/05 08:56:16;;;;;;;19.33;14.57;;;;;;;22.60;59.27;101997.19;5035501;28;20027;-59
2021/06/05 08:58:49;;;;;;;20.75;15.48;;;;;;;22.61;59.20;101999.72;5037575;28;20419;-59
2021/06/05 09:01:40;;;;;;;18.63;13.88;;;;;;;22.60;59.08;101992.69;5037122;28;20026;-61
2021/06/05 09:04:15;;;;;;;18.90;13.07;;;;;;;22.67;58.96;102000.19;5036467;28;20087;-59
2021/06/05 09:07:03;;;;;;;19.80;13.50;;;;;;;22.69;58.66;101995.59;5035465;28;20481;-59
2021/06/05 09:09:40;;;;;;;17.52;12.75;;;;;;;22.73;58.69;101992.56;5035831;28;20054;-60
2021/06/05 09:12:06;;;;;;;16.92;12.30;;;;;;;22.76;58.62;101996.75;5036642;28;20341;-62
2021/06/05 09:14:32;;;;;;;20.08;13.20;;;;;;;22.76;58.60;101994.09;5034934;28;20026;-60
2021/06/05 09:17:01;;;;;;;17.65;13.95;;;;;;;22.76;58.58;101994.94;5035643;28;20519;-60
2021/06/05 09:19:32;;;;;;;22.13;13.80;;;;;;;22.79;58.40;101994.69;5035255;28;20045;-58
2021/06/05 09:22:07;;;;;;;19.55;13.73;;;;;;;22.82;58.34;101993.59;5034832;28;20033;-59
2021/06/05 09:24:36;;;;;;;18.35;13.05;;;;;;;22.81;58.20;101997.22;5035392;28;20381;-58
2021/06/05 09:27:05;;;;;;;15.52;11.80;;;;;;;22.82;58.19;101996.25;5034641;28;20346;-60
2021/06/05 09:29:32;;;;;;;15.90;12.45;;;;;;;22.83;58.45;101995.28;5034457;28;20033;-58
2021/06/05 09:32:00;;;;;;;17.80;12.15;;;;;;;22.83;58.34;102004.09;5034972;28;20410;-59
2021/06/05 09:34:32;;;;;;;15.35;12.45;;;;;;;22.81;58.59;101997.22;5034298;28;20025;-58
2021/06/05 09:36:58;;;;;;;15.95;11.70;;;;;;;22.83;58.48;102009.41;5035619;28;20036;-58
2021/06/05 09:39:48;;;;;;;16.17;12.23;;;;;;;22.87;58.36;102017.97;5038521;28;20380;-58
2021/06/05 09:42:29;;;;;;;16.10;11.38;;;;;;;22.81;58.31;102000.72;5037686;28;20026;-59
2021/06/05 09:44:54;;;;;;;15.05;11.07;;;;;;;22.89;58.15;102013.38;5039830;28;20072;-60
2021/06/05 09:47:27;;;;;;;15.20;11.32;;;;;;;22.89;58.26;102005.41;5038435;28;20500;-60
2021/06/05 09:50:14;;;;;;;14.05;9.82;;;;;;;22.91;58.19;102008.78;5036015;28;20051;-61
2021/06/05 09:52:39;;;;;;;12.45;9.48;;;;;;;22.88;58.14;102001.06;5023267;28;20045;-59
2021/06/05 09:55:38;;;;;;;13.13;9.77;;;;;;;22.94;58.18;102010.31;5018419;28;20026;-59
2021/06/05 09:58:09;;;;;;;13.90;9.32;;;;;;;22.94;58.16;102013.84;5014146;28;20204;-59
2021/06/05 10:00:38;;;;;;;13.63;9.18;;;;;;;22.94;58.27;102013.84;5017705;28;20026;-59
2021/06/05 10:03:29;;;;;;;13.93;10.30;;;;;;;22.97;58.07;102018.03;5023370;28;20028;-60
2021/06/05 10:05:55;;;;;;;12.93;8.52;;;;;;;22.93;58.36;102016.63;5026783;28;20056;-61
2021/06/05 10:08:27;;;;;;;11.82;8.63;;;;;;;22.96;58.45;102013.72;5025283;28;20141;-61
2021/06/05 10:11:02;;;;;;;14.88;9.15;;;;;;;22.96;58.48;102022.53;5021582;28;20029;-60
2021/06/05 10:13:32;;;;;;;11.95;8.27;;;;;;;22.97;58.26;102018.91;5021192;28;20030;-60
2021/06/05 10:16:05;;;;;;;12.60;9.32;;;;;;;22.97;58.33;102018.91;5021393;28;20030;-59
2021/06/05 10:18:38;;;;;;;12.43;9.20;;;;;;;22.99;58.38;102024.91;5015716;28;20026;-60
2021/06/05 10:21:09;;;;;;;12.60;8.90;;;;;;;23.00;58.40;102023.97;5015022;28;20377;-58
2021/06/05 10:23:38;;;;;;;10.85;8.23;;;;;;;23.03;58.22;102022.00;5014510;28;20053;-60
2021/06/05 10:26:34;;;;;;;13.27;8.70;;;;;;;22.98;58.25;102023.22;5014515;28;20033;-59
2021/06/05 10:29:21;;;;;;;10.52;7.78;;;;;;;23.02;58.44;102034.47;5010911;28;20433;-58
2021/06/05 10:31:48;;;;;;;12.00;8.48;;;;;;;23.03;58.41;102038.78;5011782;28;20034;-59
2021/06/05 10:34:36;;;;;;;14.07;8.57;;;;;;;23.03;58.36;102035.31;5013995;28;20026;-58
2021/06/05 10:37:03;;;;;;;14.55;7.93;;;;;;;23.02;58.10;102039.78;5013812;28;20465;-57
2021/06/05 10:39:33;;;;;;;10.93;8.00;;;;;;;23.04;58.16;102047.63;5013538;28;20033;-58
2021/06/05 10:42:10;;;;;;;11.27;8.13;;;;;;;23.02;57.88;102042.44;5014338;28;20107;-57
2021/06/05 10:44:35;;;;;;;10.75;7.40;;;;;;;23.03;58.25;102049.44;5013934;28;20022;-58
2021/06/05 10:47:17;;;;;;;10.20;8.00;;;;;;;23.04;58.13;102044.97;5013587;28;20037;-57
2021/06/05 10:49:56;;;;;;;11.90;7.63;;;;;;;23.04;58.26;102051.13;5013810;28;20114;-58
2021/06/05 10:52:39;;;;;;;10.77;7.28;;;;;;;23.04;58.07;102044.97;5012712;28;20732;-58
2021/06/05 10:55:34;;;;;;;10.40;7.17;;;;;;;23.03;58.08;102032.66;5013327;28;20044;-58
2021/06/05 10:58:15;;;;;;;10.60;7.25;;;;;;;23.05;58.04;102041.31;5013719;28;20030;-59
2021/06/05 11:00:53;;;;;;;10.90;7.78;;;;;;;23.06;58.00;102040.38;5013015;28;20026;-58
2021/06/05 11:03:27;;;;;;;9.93;7.40;;;;;;;23.06;58.12;102043.03;5012325;28;20385;-59
2021/06/05 11:06:05;;;;;;;;;;;;;;;23.06;57.85;102043.03;5013385;28;20026;-58
2021/06/05 11:08:34;;;;;;;10.68;7.00;;;;;;;23.06;57.66;102043.84;5013548;28;19921;-57
2021/06/05 11:10:59;;;;;;;10.60;6.60;;;;;;;23.06;57.83;102049.16;5013478;28;20033;-59
2021/06/05 11:13:35;;;;;;;10.10;7.47;;;;;;;23.09;57.79;102045.47;5012335;28;20036;-58
2021/06/05 11:16:02;;;;;;;10.75;6.88;;;;;;;23.10;58.06;102041.84;5013271;28;20470;-58
2021/06/05 11:18:31;;;;;;;10.35;6.65;;;;;;;23.10;58.03;102044.50;5013368;28;20109;-59
2021/06/05 11:20:58;;;;;;;8.23;6.63;;;;;;;23.10;58.10;102044.50;5012615;28;20025;-56
2021/06/05 11:23:26;;;;;;;10.05;6.90;;;;;;;23.11;58.22;102039.03;5013536;28;20096;-58
2021/06/05 11:25:54;;;;;;;8.52;6.30;;;;;;;23.12;58.18;102039.88;5012197;28;20025;-59
2021/06/05 11:28:40;;;;;;;8.80;6.80;;;;;;;23.14;58.20;102046.75;5012460;28;20104;-56
2021/06/05 11:31:40;;;;;;;10.32;6.70;;;;;;;23.16;57.94;102051.94;5012691;28;20029;-58